Humidity-temperature Sensor

Selected Measurement Type: Air Temperature

 
Air Temperature [°C]     6 entries per hour
Showing data from 7/27/2017 (00:00:00 Z) to 7/24/2017 (00:01:00 Z)
Previous Next [ Day | 3-Days | 7-Days ]
First Last
Prev [ Day | 3-Days | 7-Days ] Next
First Last

Start Time:     :
End Time:     :     
Time (in GMT) :00 :50 :40 :30 :20 :10
Previous Next [ Day | 3-Days | 7-Days ]
First Last
Prev [ Day | 3-Days | 7-Days ] Next
First Last


123 => good data
MM => data is determined as missing
-- => data not received/configured
Back to Top Back to Top
7/27/2017 00:00 to 23:10 28.89 28.77 28.85 28.59 28.73 28.77
7/26/2017 23:00 to 22:10 28.75 28.63 28.61 28.80 28.74 28.63
7/26/2017 22:00 to 21:10 28.74 28.77 28.76 28.59 28.77 28.64
7/26/2017 21:00 to 20:10 28.67 28.65 28.76 28.71 28.75 28.77
7/26/2017 20:00 to 19:10 28.73 28.73 28.40 28.06 27.99 27.93
7/26/2017 19:00 to 18:10 27.70 27.44 27.51 27.76 27.91 27.90
7/26/2017 18:00 to 17:10 27.99 27.94 27.97 28.00 27.89 27.86
7/26/2017 17:00 to 16:10 27.86 27.81 27.71 27.67 27.30 27.03
7/26/2017 16:00 to 15:10 26.87 26.57 26.71 27.56 28.65 28.69
7/26/2017 15:00 to 14:10 28.56 28.69 28.65 28.62 28.68 28.66
7/26/2017 14:00 to 13:10 28.67 28.72 28.62 28.64 28.77 28.72
7/26/2017 13:00 to 12:10 28.79 28.71 28.76 28.74 28.84 28.81
7/26/2017 12:00 to 11:10 28.77 28.77 28.86 28.88 28.82 28.90
7/26/2017 11:00 to 10:10 28.82 28.83 28.81 28.86 28.89 28.90
7/26/2017 10:00 to 9:10 28.95 28.90 29.05 28.95 29.02 28.99
7/26/2017 09:00 to 8:10 29.07 29.07 29.03 29.11 29.08 28.98
7/26/2017 08:00 to 7:10 29.03 29.03 28.43 28.32 28.41 28.30
7/26/2017 07:00 to 6:10 28.04 28.01 27.78 27.80 27.61 27.45
7/26/2017 06:00 to 5:10 27.82 27.38 27.95 29.04 29.04 28.88
7/26/2017 05:00 to 4:10 28.59 28.44 28.53 28.49 28.34 28.13
7/26/2017 04:00 to 3:10 28.16 27.65 26.26 27.25 27.51 26.88
7/26/2017 03:00 to 2:10 26.27 25.79 25.97 26.98 27.00 27.38
7/26/2017 02:00 to 1:10 28.23 28.83 29.06 29.09 29.02 28.87
7/26/2017 01:00 to 0:10 29.00 28.83 28.85 28.80 28.88 28.87
7/26/2017 00:00 to 23:10 28.86 28.83 28.90 28.86 28.81 28.78
7/25/2017 23:00 to 22:10 28.75 28.82 28.81 28.93 28.96 28.77
7/25/2017 22:00 to 21:10 28.86 28.91 28.85 28.85 28.86 28.74
7/25/2017 21:00 to 20:10 28.70 28.76 28.79 28.83 28.86 28.80
7/25/2017 20:00 to 19:10 28.76 28.83 28.73 28.84 28.86 29.06
7/25/2017 19:00 to 18:10 28.88 28.97 28.98 29.02 29.07 28.74
7/25/2017 18:00 to 17:10 28.75 28.68 28.61 28.54 28.67 28.68
7/25/2017 17:00 to 16:10 28.56 28.62 28.52 28.51 28.50 28.49
7/25/2017 16:00 to 15:10 28.59 28.49 28.53 28.58 28.51 28.54
7/25/2017 15:00 to 14:10 28.56 28.58 28.53 28.31 28.52 28.64
7/25/2017 14:00 to 13:10 28.56 28.73 28.62 28.61 28.48 28.44
7/25/2017 13:00 to 12:10 28.43 28.65 28.71 28.78 28.67 28.62
7/25/2017 12:00 to 11:10 28.73 28.57 28.66 28.64 28.73 28.84
7/25/2017 11:00 to 10:10 -- -- -- -- -- --
7/25/2017 10:00 to 9:10 28.70 28.88 28.63 28.82 28.70 28.69
7/25/2017 09:00 to 8:10 28.68 28.65 28.79 28.72 28.77 28.67
7/25/2017 08:00 to 7:10 28.69 28.74 28.74 28.71 28.73 28.83
7/25/2017 07:00 to 6:10 28.78 28.60 28.28 28.75 28.53 28.43
7/25/2017 06:00 to 5:10 27.54 28.30 28.22 28.12 27.84 28.02
7/25/2017 05:00 to 4:10 28.65 28.59 28.66 28.67 28.67 28.47
7/25/2017 04:00 to 3:10 28.74 28.76 28.78 28.80 28.77 29.11
7/25/2017 03:00 to 2:10 28.81 28.67 28.72 28.67 28.60 28.76
7/25/2017 02:00 to 1:10 28.70 28.64 28.72 28.88 29.01 28.77
7/25/2017 01:00 to 0:10 28.79 28.76 28.83 28.87 28.87 28.78
7/25/2017 00:00 to 23:10 28.79 28.82 28.88 28.82 28.85 28.90
7/24/2017 23:00 to 22:10 28.95 28.83 28.91 28.90 28.93 29.00
7/24/2017 22:00 to 21:10 28.86 28.86 28.86 28.79 28.90 28.83
7/24/2017 21:00 to 20:10 28.92 28.98 28.79 28.86 28.82 28.77
7/24/2017 20:00 to 19:10 28.77 28.69 28.78 28.81 28.65 28.83
7/24/2017 19:00 to 18:10 28.91 28.98 28.84 28.78 28.76 29.00
7/24/2017 18:00 to 17:10 28.49 28.48 28.28 28.51 28.35 28.39
7/24/2017 17:00 to 16:10 28.45 28.55 28.13 28.26 28.24 28.39
7/24/2017 16:00 to 15:10 28.16 28.30 28.29 28.26 28.22 28.39
7/24/2017 15:00 to 14:10 28.13 28.20 28.26 28.08 28.10 28.06
7/24/2017 14:00 to 13:10 28.05 27.96 27.90 27.83 27.81 27.90
7/24/2017 13:00 to 12:10 27.89 27.90 27.89 27.79 27.84 27.99
7/24/2017 12:00 to 11:10 28.45 28.26 28.26 28.39 28.23 28.22
7/24/2017 11:00 to 10:10 27.99 28.39 28.43 28.41 28.45 28.47
7/24/2017 10:00 to 9:10 28.45 28.71 28.62 28.46 28.22 28.44
7/24/2017 09:00 to 8:10 28.45 28.68 28.68 28.47 28.45 28.20
7/24/2017 08:00 to 7:10 27.81 27.77 27.74 27.83 28.12 28.52
7/24/2017 07:00 to 6:10 28.52 28.55 28.60 28.59 28.58 28.52
7/24/2017 06:00 to 5:10 28.59 28.59 28.53 28.56 28.53 28.55
7/24/2017 05:00 to 4:10 28.74 28.77 28.82 28.84 28.70 28.70
7/24/2017 04:00 to 3:10 28.98 28.77 28.77 28.62 28.81 28.70
7/24/2017 03:00 to 2:10 28.65 28.94 28.66 28.76 28.61 28.53
7/24/2017 02:00 to 1:10 28.58 28.54 28.65 28.85 28.68 28.76
7/24/2017 01:00 to 0:10 28.74 28.78 28.62 28.71 28.78 28.75